createdAt,value
2018-09-24T15:20:48.206Z,1.40
2018-09-24T15:23:23.629Z,0.90
2018-09-24T15:26:01.117Z,1.30
2018-09-24T15:28:37.936Z,1.20
2018-09-24T15:31:13.640Z,1.23
2018-09-24T15:33:49.201Z,1.30
2018-09-24T15:36:25.814Z,1.50
2018-09-24T15:39:09.907Z,1.40
2018-09-24T15:41:58.436Z,1.27
2018-09-24T15:44:44.037Z,1.40
2018-09-24T15:47:20.889Z,1.00
2018-09-24T15:49:56.957Z,1.30
2018-09-24T15:52:33.260Z,1.20
2018-09-24T15:55:08.917Z,1.10
2018-09-24T15:57:44.585Z,1.50
2018-09-24T16:00:22.665Z,1.30
2018-09-24T16:03:00.148Z,1.00
2018-09-24T16:05:36.859Z,1.30
2018-09-24T16:08:12.791Z,1.10
2018-09-24T16:10:48.487Z,1.80
2018-09-24T16:13:24.472Z,0.90
2018-09-24T16:16:00.237Z,1.07
2018-09-24T16:18:36.606Z,1.00
2018-09-24T16:21:12.145Z,1.43
2018-09-24T16:23:48.660Z,1.10
2018-09-24T16:26:26.361Z,1.57
2018-09-24T16:29:03.339Z,1.00
2018-09-24T16:31:40.320Z,1.20
2018-09-24T16:34:16.223Z,0.97
2018-09-24T16:36:53.001Z,1.10
2018-09-24T16:39:29.177Z,1.10
2018-09-24T16:42:04.736Z,0.90
2018-09-24T16:44:43.017Z,1.47
2018-09-24T16:47:20.777Z,1.30
2018-09-24T16:49:57.036Z,1.10
2018-09-24T16:52:32.528Z,1.80
2018-09-24T16:55:10.153Z,1.37
2018-09-24T16:57:46.047Z,1.60
2018-09-24T17:00:23.543Z,1.40
2018-09-24T17:02:59.764Z,1.50
2018-09-24T17:05:35.580Z,0.90
2018-09-24T17:08:11.515Z,1.40
2018-09-24T17:10:47.972Z,1.00
2018-09-24T17:13:25.472Z,1.50
2018-09-24T17:16:02.307Z,1.30
2018-09-24T17:18:40.407Z,1.40
2018-09-24T17:21:17.784Z,1.27
2018-09-24T17:23:53.736Z,1.70
2018-09-24T17:26:30.352Z,1.50
2018-09-24T17:29:05.939Z,1.60
2018-09-24T17:31:41.773Z,1.50
2018-09-24T17:34:17.002Z,1.60
2018-09-24T17:36:52.043Z,1.57
2018-09-24T17:39:26.756Z,1.80
2018-09-24T17:42:02.110Z,2.30
2018-09-24T17:44:38.014Z,1.90
2018-09-24T17:47:14.246Z,1.53
2018-09-24T17:49:50.538Z,1.80
2018-09-24T17:52:26.381Z,1.90
2018-09-24T17:55:01.553Z,1.80
2018-09-24T17:57:37.357Z,2.00
2018-09-24T18:00:12.729Z,1.47
2018-09-24T18:02:48.685Z,1.30
2018-09-24T18:05:26.412Z,1.53
2018-09-24T18:08:02.581Z,1.37
2018-09-24T18:10:37.925Z,1.30
2018-09-24T18:13:13.619Z,1.17
2018-09-24T18:15:50.089Z,1.70
2018-09-24T18:18:26.757Z,1.40
2018-09-24T18:21:03.728Z,1.90
2018-09-24T18:23:38.763Z,1.97
2018-09-24T18:26:15.469Z,1.53
2018-09-24T18:28:51.630Z,1.90
2018-09-24T18:31:29.156Z,1.50
2018-09-24T18:34:04.884Z,1.57
2018-09-24T18:36:40.276Z,1.60
2018-09-24T18:39:16.186Z,1.47
2018-09-24T18:41:52.306Z,1.60
2018-09-24T18:44:28.990Z,1.60
2018-09-24T18:47:05.483Z,1.37
2018-09-24T18:49:41.568Z,1.77
2018-09-24T18:52:17.474Z,1.77
2018-09-24T18:54:53.435Z,1.50
2018-09-24T18:57:30.420Z,1.40
2018-09-24T19:00:08.001Z,1.67
2018-09-24T19:02:44.302Z,1.50
2018-09-24T19:05:21.213Z,2.00
2018-09-24T19:07:56.651Z,1.67
2018-09-24T19:10:32.868Z,1.73
2018-09-24T19:13:08.919Z,1.53
2018-09-24T19:15:44.184Z,1.80
2018-09-24T19:18:20.077Z,1.37
2018-09-24T19:20:55.664Z,1.87
2018-09-24T19:23:33.987Z,1.60
2018-09-24T19:26:10.140Z,1.63
2018-09-24T19:28:47.633Z,1.83
2018-09-24T19:31:25.844Z,1.90
2018-09-24T19:34:20.412Z,1.70
2018-09-24T19:36:57.961Z,1.73
2018-09-24T19:39:34.477Z,2.27
2018-09-24T19:42:12.538Z,1.70
2018-09-24T19:47:59.365Z,1.80
2018-09-24T19:50:39.056Z,2.23
2018-09-24T19:53:15.885Z,1.50
2018-09-24T19:55:54.756Z,1.60
2018-09-24T19:58:31.374Z,1.53
2018-09-24T20:01:09.188Z,1.47
2018-09-24T20:03:46.263Z,1.67
2018-09-24T20:06:23.327Z,1.50
2018-09-24T20:08:58.497Z,2.00
2018-09-24T20:11:35.676Z,1.50
2018-09-24T20:14:12.649Z,1.60
2018-09-24T20:16:58.771Z,1.80
2018-09-24T20:19:34.502Z,1.73
2018-09-24T20:22:13.514Z,1.93
2018-09-24T20:24:52.768Z,2.67
2018-09-24T20:27:29.348Z,1.83
2018-09-24T20:30:05.989Z,2.10
2018-09-24T20:32:42.186Z,1.50
2018-09-24T20:35:19.744Z,1.93
2018-09-24T20:37:55.594Z,1.70
2018-09-24T20:40:31.321Z,2.30
2018-09-24T20:43:08.951Z,2.50
2018-09-24T20:45:44.504Z,2.57
2018-09-24T20:48:20.149Z,2.80
2018-09-24T20:50:57.494Z,2.77
2018-09-24T20:53:33.529Z,2.60
2018-09-24T20:56:10.861Z,2.30
2018-09-24T20:58:46.863Z,2.80
2018-09-24T21:01:23.422Z,1.83
2018-09-24T21:03:59.476Z,1.60
2018-09-24T21:06:36.860Z,2.00
2018-09-24T21:09:16.387Z,2.30
2018-09-24T21:14:45.047Z,2.27
2018-09-24T21:17:21.603Z,2.17
2018-09-24T21:19:59.167Z,2.20
2018-09-24T21:22:36.392Z,2.50
2018-09-24T21:25:12.025Z,2.07
2018-09-24T21:27:48.077Z,2.80
2018-09-24T21:30:24.039Z,2.30
2018-09-24T21:32:59.678Z,2.30
2018-09-24T21:35:35.819Z,2.47
2018-09-24T21:38:12.485Z,2.10
2018-09-24T21:40:48.884Z,2.10
2018-09-24T21:43:24.689Z,1.97
2018-09-24T21:46:01.214Z,2.23
2018-09-24T21:49:59.970Z,2.10
2018-09-24T21:52:35.080Z,1.90
2018-09-24T21:55:14.251Z,1.63
2018-09-24T21:57:49.333Z,1.63
2018-09-24T22:00:27.697Z,2.00
2018-09-24T22:03:03.516Z,2.00
2018-09-24T22:05:38.435Z,2.07
2018-09-24T22:08:17.232Z,1.87
2018-09-24T22:10:53.231Z,1.63
2018-09-24T22:13:29.373Z,2.10
2018-09-24T22:16:06.024Z,1.97
2018-09-24T22:18:42.284Z,1.80
2018-09-24T22:21:17.405Z,1.70
2018-09-24T22:23:52.133Z,1.80
2018-09-24T22:26:30.212Z,1.80
2018-09-24T22:29:05.273Z,1.77
2018-09-24T22:31:40.218Z,1.80
2018-09-24T22:34:15.363Z,2.10
2018-09-24T22:36:51.544Z,1.67
2018-09-24T22:39:26.556Z,1.47
2018-09-24T22:42:02.260Z,1.50
2018-09-24T22:44:37.290Z,1.50
2018-09-24T22:50:04.522Z,1.73
2018-09-24T22:52:41.095Z,1.40
2018-09-24T22:55:16.452Z,1.70
2018-09-24T22:57:51.352Z,1.50
2018-09-24T23:00:27.501Z,1.53
2018-09-24T23:03:02.571Z,1.57
2018-09-24T23:05:37.447Z,1.47
2018-09-24T23:08:12.532Z,1.40
2018-09-24T23:10:50.654Z,1.80
2018-09-24T23:13:26.304Z,1.47
2018-09-24T23:18:40.789Z,1.60
2018-09-24T23:21:15.531Z,1.50
2018-09-24T23:23:50.920Z,1.97
2018-09-24T23:26:27.172Z,2.20
2018-09-24T23:29:02.256Z,1.90
2018-09-24T23:31:36.905Z,1.77
2018-09-24T23:34:12.432Z,2.13
2018-09-24T23:36:47.131Z,1.80
2018-09-24T23:39:27.522Z,2.17
2018-09-24T23:42:02.196Z,1.93
2018-09-24T23:44:37.031Z,1.97
2018-09-24T23:47:17.160Z,1.53
2018-09-24T23:49:52.096Z,2.00
2018-09-24T23:52:26.848Z,1.90
2018-09-24T23:57:45.759Z,2.00
